createdAt,value
2019-05-03T00:00:02.842Z,99066.30
2019-05-03T00:02:49.817Z,99068.47
2019-05-03T00:05:29.952Z,99059.04
2019-05-03T00:08:02.169Z,99062.72
2019-05-03T00:10:31.902Z,99071.28
2019-05-03T00:13:01.925Z,99067.21
2019-05-03T00:15:42.924Z,99066.53
2019-05-03T00:18:12.469Z,99064.84
2019-05-03T00:20:42.110Z,99071.23
2019-05-03T00:23:12.126Z,99068.03
2019-05-03T00:25:42.662Z,99075.23
2019-05-03T00:28:13.315Z,99076.73
2019-05-03T00:30:42.854Z,99076.88
2019-05-03T00:33:12.335Z,99078.72
2019-05-03T00:35:43.777Z,99078.88
2019-05-03T00:38:14.827Z,99082.08
2019-05-03T00:40:44.342Z,99089.43
2019-05-03T00:43:14.436Z,99088.59
2019-05-03T00:45:43.928Z,99091.27
2019-05-03T00:48:13.400Z,99090.07
2019-05-03T00:50:43.493Z,99098.30
2019-05-03T00:53:13.284Z,99096.45
2019-05-03T00:55:42.760Z,99088.22
2019-05-03T00:58:12.227Z,99098.63
2019-05-03T01:00:42.332Z,99092.86
2019-05-03T01:03:12.541Z,99091.50
2019-05-03T01:05:42.436Z,99094.70
2019-05-03T01:08:12.702Z,99087.80
2019-05-03T01:10:42.415Z,99070.67
2019-05-03T01:13:12.390Z,99080.73
2019-05-03T01:15:52.834Z,99079.38
2019-05-03T01:18:22.854Z,99084.92
2019-05-03T01:20:52.806Z,99088.80
2019-05-03T01:23:22.889Z,99083.23
2019-05-03T01:25:52.525Z,99080.36
2019-05-03T01:28:22.285Z,99077.01
2019-05-03T01:30:52.039Z,99077.66
2019-05-03T01:33:22.626Z,99069.94
2019-05-03T01:35:52.350Z,99074.63
2019-05-03T01:38:22.758Z,99068.19
2019-05-03T01:40:52.347Z,99071.05
2019-05-03T01:43:22.309Z,99063.20
2019-05-03T01:45:52.178Z,99069.27
2019-05-03T01:48:35.815Z,99065.94
2019-05-03T01:51:11.697Z,99069.27
2019-05-03T01:53:41.755Z,99069.80
2019-05-03T01:56:11.828Z,99068.80
2019-05-03T01:58:41.765Z,99069.29
2019-05-03T02:01:12.852Z,99079.21
2019-05-03T02:03:49.489Z,99082.41
2019-05-03T02:06:18.989Z,99082.72
2019-05-03T02:08:48.488Z,99080.88
2019-05-03T02:11:17.953Z,99073.97
2019-05-03T02:13:47.699Z,99083.54
2019-05-03T02:16:17.178Z,99082.86
2019-05-03T02:18:46.649Z,99078.95
2019-05-03T02:21:16.111Z,99080.95
2019-05-03T02:23:45.580Z,99082.98
2019-05-03T02:26:15.392Z,99088.03
2019-05-03T02:28:44.870Z,99090.22
2019-05-03T02:31:14.331Z,99101.16
2019-05-03T02:33:44.771Z,99107.27
2019-05-03T02:36:14.522Z,99109.05
2019-05-03T02:38:44.000Z,99106.95
2019-05-03T02:41:13.713Z,99097.75
2019-05-03T02:43:51.080Z,99108.68
2019-05-03T02:46:22.210Z,99115.77
2019-05-03T02:48:55.671Z,99115.94
2019-05-03T02:51:26.073Z,99116.81
2019-05-03T02:53:57.050Z,99106.06
2019-05-03T02:56:27.208Z,99113.10
2019-05-03T02:58:56.647Z,99120.02
2019-05-03T03:01:26.783Z,99118.83
2019-05-03T03:03:57.093Z,99117.31
2019-05-03T03:06:27.209Z,99124.53
2019-05-03T03:08:58.509Z,99126.39
2019-05-03T03:11:29.932Z,99124.70
2019-05-03T03:13:59.842Z,99127.22
2019-05-03T03:16:30.049Z,99131.75
2019-05-03T03:19:01.761Z,99135.92
2019-05-03T03:21:35.975Z,99139.13
2019-05-03T03:24:12.084Z,99141.45
2019-05-03T03:26:43.503Z,99137.09
2019-05-03T03:29:16.078Z,99139.44
2019-05-03T03:31:49.000Z,99141.94
2019-05-03T03:34:21.155Z,99138.58
2019-05-03T03:37:00.680Z,99144.58
2019-05-03T03:39:25.958Z,99145.23
2019-05-03T03:41:56.167Z,99151.75
2019-05-03T03:44:25.971Z,99148.34
2019-05-03T03:46:56.353Z,99163.78
2019-05-03T03:49:26.962Z,99167.96
2019-05-03T03:51:58.091Z,99175.66
2019-05-03T03:54:30.066Z,99177.48
2019-05-03T03:57:04.819Z,99176.48
2019-05-03T03:59:31.332Z,99175.30
2019-05-03T04:02:00.844Z,99180.86
2019-05-03T04:04:30.293Z,99191.93
2019-05-03T04:07:01.348Z,99198.63
2019-05-03T04:09:31.203Z,99197.29
2019-05-03T04:12:01.011Z,99202.66
2019-05-03T04:14:36.178Z,99215.32
2019-05-03T04:17:19.449Z,99217.47
2019-05-03T04:19:50.535Z,99222.67
2019-05-03T04:22:19.993Z,99222.98
2019-05-03T04:24:49.461Z,99229.16
2019-05-03T04:27:23.534Z,99232.63
2019-05-03T04:29:50.064Z,99236.89
2019-05-03T04:32:19.527Z,99240.72
2019-05-03T04:34:48.994Z,99251.02
2019-05-03T04:37:18.716Z,99255.98
2019-05-03T04:39:48.171Z,99254.31
2019-05-03T04:42:17.649Z,99258.13
2019-05-03T04:44:47.094Z,99266.31
2019-05-03T04:47:16.569Z,99274.50
2019-05-03T04:49:46.495Z,99274.69
2019-05-03T04:52:16.665Z,99277.57
2019-05-03T04:54:48.105Z,99279.94
2019-05-03T04:57:35.097Z,99281.28
2019-05-03T04:59:49.306Z,99274.58
2019-05-03T05:02:18.748Z,99283.43
2019-05-03T05:04:48.190Z,99290.54
2019-05-03T05:07:17.941Z,99295.44
2019-05-03T05:09:47.653Z,99297.13
2019-05-03T05:12:17.123Z,99304.55
2019-05-03T05:14:46.922Z,99304.05
2019-05-03T05:17:18.377Z,99312.09
2019-05-03T05:19:54.798Z,99314.38
2019-05-03T05:22:31.263Z,99316.38
2019-05-03T05:25:04.358Z,99320.23
2019-05-03T05:27:49.429Z,99320.91
2019-05-03T05:30:15.808Z,99318.73
2019-05-03T05:32:45.848Z,99324.88
2019-05-03T05:35:15.572Z,99330.58
2019-05-03T05:37:45.042Z,99334.32
2019-05-03T05:40:15.752Z,99329.45
2019-05-03T05:42:45.480Z,99334.01
2019-05-03T05:45:15.391Z,99334.39
2019-05-03T05:47:46.567Z,99333.11
2019-05-03T05:50:17.665Z,99335.57
2019-05-03T05:52:47.498Z,99334.08
2019-05-03T05:55:21.279Z,99342.05
2019-05-03T05:58:04.670Z,99338.61
2019-05-03T06:00:37.038Z,99342.91
2019-05-03T06:03:06.750Z,99346.58
2019-05-03T06:05:36.254Z,99344.70
2019-05-03T06:08:22.112Z,99346.23
2019-05-03T06:10:55.924Z,99352.73
2019-05-03T06:13:29.971Z,99353.64
2019-05-03T06:16:06.913Z,99353.19
2019-05-03T06:18:54.401Z,99362.72
2019-05-03T06:21:25.725Z,99375.61
2019-05-03T06:23:59.538Z,99369.27
2019-05-03T06:26:36.291Z,99374.62
2019-05-03T06:29:06.486Z,99371.76
2019-05-03T06:31:54.932Z,99379.28
2019-05-03T06:34:25.225Z,99376.90
2019-05-03T06:36:56.354Z,99383.10
2019-05-03T06:39:25.829Z,99381.07
2019-05-03T06:41:55.845Z,99383.19
2019-05-03T06:44:28.663Z,99378.63
2019-05-03T06:47:01.033Z,99380.32
2019-05-03T06:49:28.487Z,99379.09
2019-05-03T06:51:58.300Z,99388.45
2019-05-03T06:54:29.967Z,99391.48
2019-05-03T06:57:00.080Z,99391.52
2019-05-03T06:59:32.859Z,99391.33
2019-05-03T07:02:20.991Z,99395.84
2019-05-03T07:04:57.920Z,99392.92
2019-05-03T07:07:45.534Z,99397.53
2019-05-03T07:10:28.625Z,99400.71
2019-05-03T07:12:58.330Z,99406.23
2019-05-03T07:15:28.284Z,99405.89
2019-05-03T07:17:57.735Z,99413.87
2019-05-03T07:20:27.196Z,99413.84
2019-05-03T07:22:56.669Z,99418.88
2019-05-03T07:25:26.198Z,99421.13
2019-05-03T07:27:55.850Z,99427.42
2019-05-03T07:30:25.285Z,99431.41
2019-05-03T07:32:56.361Z,99423.44
2019-05-03T07:35:26.150Z,99426.95
2019-05-03T07:37:55.607Z,99428.20
2019-05-03T07:40:25.528Z,99425.89
2019-05-03T07:42:55.675Z,99427.02
2019-05-03T07:45:25.627Z,99422.70
2019-05-03T07:47:55.882Z,99423.58
2019-05-03T07:50:26.142Z,99426.70
2019-05-03T07:52:55.931Z,99418.12
2019-05-03T07:55:45.534Z,99426.70
2019-05-03T07:58:16.209Z,99422.66
2019-05-03T08:00:45.716Z,99430.23
2019-05-03T08:03:15.663Z,99427.04
2019-05-03T08:05:45.636Z,99428.38
2019-05-03T08:08:15.342Z,99437.11
2019-05-03T08:10:45.224Z,99433.05
2019-05-03T08:13:15.337Z,99439.27
2019-05-03T08:15:45.387Z,99431.81
2019-05-03T08:18:15.528Z,99441.34
2019-05-03T08:20:45.421Z,99445.52
2019-05-03T08:23:26.401Z,99440.99
2019-05-03T08:25:46.017Z,99448.09
2019-05-03T08:28:15.453Z,99450.19
2019-05-03T08:31:02.025Z,99444.86
2019-05-03T08:33:49.397Z,99454.44
2019-05-03T08:36:18.863Z,99451.22
2019-05-03T08:38:48.642Z,99450.89
2019-05-03T08:41:19.757Z,99448.38
2019-05-03T08:43:49.231Z,99451.06
2019-05-03T08:46:18.682Z,99454.45
2019-05-03T08:48:48.130Z,99453.41
2019-05-03T08:51:17.582Z,99458.59
2019-05-03T08:53:47.314Z,99456.69
2019-05-03T08:56:17.134Z,99456.52
2019-05-03T08:58:47.146Z,99453.33
2019-05-03T09:01:16.857Z,99457.53
2019-05-03T09:03:46.467Z,99456.61
2019-05-03T09:06:16.178Z,99453.21
2019-05-03T09:08:46.092Z,99458.38
2019-05-03T09:11:17.341Z,99463.21
2019-05-03T09:13:57.499Z,99463.77
2019-05-03T09:16:27.308Z,99461.52
2019-05-03T09:18:56.823Z,99462.05
2019-05-03T09:21:26.528Z,99463.17
2019-05-03T09:23:56.046Z,99458.67
2019-05-03T09:26:29.172Z,99466.24
2019-05-03T09:28:57.195Z,99456.46
2019-05-03T09:31:26.805Z,99463.77
2019-05-03T09:33:56.311Z,99467.17
2019-05-03T09:36:25.818Z,99463.34
2019-05-03T09:38:55.629Z,99468.22
2019-05-03T09:41:25.740Z,99464.68
2019-05-03T09:43:55.751Z,99469.39
2019-05-03T09:46:26.484Z,99463.36
2019-05-03T09:49:09.594Z,99457.66
2019-05-03T09:51:27.770Z,99450.19
2019-05-03T09:53:59.123Z,99453.28
2019-05-03T09:56:57.570Z,99449.88
2019-05-03T09:59:20.013Z,99449.72
2019-05-03T10:01:50.966Z,99448.42
2019-05-03T10:04:21.101Z,99448.42
2019-05-03T10:06:50.829Z,99443.97
2019-05-03T10:09:20.286Z,99445.98
2019-05-03T10:11:50.115Z,99441.03
2019-05-03T10:14:19.589Z,99443.57
2019-05-03T10:16:51.002Z,99436.14
2019-05-03T10:19:28.293Z,99450.76
2019-05-03T10:21:51.665Z,99445.27
2019-05-03T10:24:21.111Z,99441.19
2019-05-03T10:26:50.981Z,99436.16
2019-05-03T10:29:20.678Z,99427.66
2019-05-03T10:31:57.761Z,99439.26
2019-05-03T10:34:27.400Z,99434.66
2019-05-03T10:36:57.157Z,99442.52
2019-05-03T10:39:26.716Z,99437.52
2019-05-03T10:41:56.335Z,99444.63
2019-05-03T10:44:25.827Z,99436.30
2019-05-03T10:46:55.973Z,99449.09
2019-05-03T10:49:25.508Z,99434.59
2019-05-03T10:51:56.874Z,99438.83
2019-05-03T10:54:26.363Z,99455.64
2019-05-03T10:57:05.284Z,99440.53
2019-05-03T10:59:35.599Z,99438.58
2019-05-03T11:02:06.979Z,99433.75
2019-05-03T11:04:36.599Z,99437.48
2019-05-03T11:07:06.513Z,99444.56
2019-05-03T11:09:48.879Z,99447.98
2019-05-03T11:12:07.115Z,99449.80
2019-05-03T11:14:36.909Z,99454.09
2019-05-03T11:17:06.393Z,99454.34
2019-05-03T11:19:35.883Z,99448.73
2019-05-03T11:22:05.976Z,99451.31
2019-05-03T11:24:35.423Z,99461.34
2019-05-03T11:27:06.511Z,99461.91
2019-05-03T11:29:35.976Z,99460.84
2019-05-03T11:32:25.512Z,99460.02
2019-05-03T11:35:11.558Z,99458.94
2019-05-03T11:37:50.462Z,99456.04
2019-05-03T11:40:20.109Z,99460.01
2019-05-03T11:42:50.457Z,99438.38
2019-05-03T11:45:19.917Z,99445.76
2019-05-03T11:47:49.786Z,99453.67
2019-05-03T11:50:19.525Z,99431.48
2019-05-03T11:52:49.008Z,99440.78
2019-05-03T11:55:18.463Z,99442.05
2019-05-03T11:57:47.954Z,99440.33
2019-05-03T12:00:21.307Z,99444.02
2019-05-03T12:02:55.601Z,99444.61
2019-05-03T12:05:29.416Z,99444.59
2019-05-03T12:07:58.875Z,99446.10
2019-05-03T12:10:45.920Z,99441.00
2019-05-03T12:13:01.467Z,99441.00
2019-05-03T12:15:30.933Z,99424.47
2019-05-03T12:18:02.430Z,99427.37
2019-05-03T12:20:35.838Z,99422.73
2019-05-03T12:23:06.121Z,99416.91
2019-05-03T12:25:36.101Z,99435.68
2019-05-03T12:28:06.098Z,99424.12
2019-05-03T12:30:35.726Z,99420.26
2019-05-03T12:33:06.202Z,99411.28
2019-05-03T12:35:36.007Z,99411.23
2019-05-03T12:38:12.029Z,99414.50
2019-05-03T12:40:41.588Z,99412.41
2019-05-03T12:43:11.061Z,99419.67
2019-05-03T12:45:41.029Z,99408.34
2019-05-03T12:48:25.528Z,99421.59
2019-05-03T12:51:01.518Z,99419.36
2019-05-03T12:53:31.196Z,99416.07
2019-05-03T12:56:01.069Z,99413.30
2019-05-03T12:58:45.727Z,99399.83
2019-05-03T13:01:41.042Z,99398.02
2019-05-03T13:04:17.071Z,99392.63
2019-05-03T13:06:48.158Z,99404.67
2019-05-03T13:09:17.652Z,99396.53
2019-05-03T13:11:55.274Z,99389.27
2019-05-03T13:14:20.209Z,99375.80
2019-05-03T13:16:49.707Z,99385.30
2019-05-03T13:19:19.162Z,99386.36
2019-05-03T13:21:48.854Z,99387.69
2019-05-03T13:24:23.285Z,99389.38
2019-05-03T13:26:49.574Z,99378.73
2019-05-03T13:29:19.038Z,99384.97
2019-05-03T13:31:58.396Z,99376.30
2019-05-03T13:34:19.770Z,99385.02
2019-05-03T13:36:49.223Z,99390.80
2019-05-03T13:39:18.699Z,99383.35
2019-05-03T13:41:48.150Z,99375.73
2019-05-03T13:44:17.595Z,99379.67
2019-05-03T13:46:47.071Z,99381.17
2019-05-03T13:49:16.811Z,99380.84
2019-05-03T13:51:46.523Z,99380.59
2019-05-03T13:54:16.454Z,99366.09
2019-05-03T13:56:45.884Z,99366.56
2019-05-03T13:59:19.905Z,99378.25
2019-05-03T14:01:46.549Z,99374.06
2019-05-03T14:04:16.308Z,99377.46
2019-05-03T14:06:45.788Z,99380.31
2019-05-03T14:09:15.235Z,99380.37
2019-05-03T14:11:44.927Z,99383.41
2019-05-03T14:14:15.189Z,99386.45
2019-05-03T14:16:45.285Z,99383.30
2019-05-03T14:19:16.430Z,99373.38
2019-05-03T14:21:47.539Z,99365.94
2019-05-03T14:24:17.476Z,99368.33
2019-05-03T14:26:47.099Z,99352.15
2019-05-03T14:29:16.559Z,99358.34
2019-05-03T14:31:46.036Z,99361.28
2019-05-03T14:34:17.532Z,99367.83
2019-05-03T14:36:47.138Z,99372.25
2019-05-03T14:39:16.583Z,99372.65
2019-05-03T14:41:46.918Z,99374.72
2019-05-03T14:44:18.184Z,99378.66
2019-05-03T14:46:47.851Z,99372.13
2019-05-03T14:49:17.966Z,99364.02
2019-05-03T14:51:47.441Z,99365.36
2019-05-03T14:54:17.364Z,99363.70
2019-05-03T14:56:48.457Z,99372.52
2019-05-03T14:59:31.585Z,99372.52
2019-05-03T15:02:05.855Z,99358.31
2019-05-03T15:04:35.602Z,99365.16
2019-05-03T15:09:42.359Z,99362.34
2019-05-03T15:12:12.156Z,99363.52
2019-05-03T15:14:41.595Z,99366.38
2019-05-03T15:17:11.075Z,99372.59
2019-05-03T15:19:40.524Z,99364.53
2019-05-03T15:22:10.001Z,99368.95
2019-05-03T15:24:39.804Z,99362.83
2019-05-03T15:27:09.254Z,99370.75
2019-05-03T15:29:38.778Z,99368.43
2019-05-03T15:32:08.614Z,99366.44
2019-05-03T15:34:38.395Z,99366.44
2019-05-03T15:37:08.293Z,99376.23
2019-05-03T15:39:37.737Z,99357.80
2019-05-03T15:42:07.226Z,99369.19
2019-05-03T15:44:54.690Z,99366.22
2019-05-03T15:47:26.108Z,99367.66
2019-05-03T15:49:55.535Z,99366.61
2019-05-03T15:52:24.991Z,99368.19
2019-05-03T15:54:55.198Z,99364.83
2019-05-03T15:57:25.235Z,99363.70
2019-05-03T15:59:55.243Z,99369.17
2019-05-03T16:02:25.109Z,99359.88
2019-05-03T16:04:57.181Z,99360.90
2019-05-03T16:07:25.726Z,99360.90
2019-05-03T16:09:55.453Z,99367.02
2019-05-03T16:12:24.962Z,99366.22
2019-05-03T16:14:55.217Z,99365.34
2019-05-03T16:17:25.021Z,99364.22
2019-05-03T16:19:55.727Z,99367.15
2019-05-03T16:22:25.414Z,99370.52
2019-05-03T16:24:55.695Z,99367.81
2019-05-03T16:27:29.609Z,99366.19
2019-05-03T16:29:59.431Z,99359.34
2019-05-03T16:32:28.908Z,99349.69
2019-05-03T16:34:58.369Z,99345.66
2019-05-03T16:37:28.129Z,99348.27
2019-05-03T16:39:57.879Z,99340.46
2019-05-03T16:42:27.427Z,99344.31
2019-05-03T16:44:57.004Z,99346.13
2019-05-03T16:47:26.868Z,99339.53
2019-05-03T16:49:56.354Z,99341.93
2019-05-03T16:52:25.816Z,99336.80
2019-05-03T16:54:55.275Z,99327.79
2019-05-03T16:57:24.899Z,99340.14
2019-05-03T16:59:55.104Z,99344.20
2019-05-03T17:02:24.727Z,99351.52
2019-05-03T17:04:55.920Z,99356.94
2019-05-03T17:07:27.008Z,99359.72
2019-05-03T17:10:04.926Z,99364.61
2019-05-03T17:12:37.639Z,99359.95
2019-05-03T17:15:08.506Z,99363.66
2019-05-03T17:17:38.249Z,99356.95
2019-05-03T17:20:08.350Z,99359.14
2019-05-03T17:22:37.831Z,99361.83
2019-05-03T17:25:07.465Z,99363.52
2019-05-03T17:27:36.917Z,99359.70
2019-05-03T17:30:07.241Z,99358.20
2019-05-03T17:32:36.673Z,99353.70
2019-05-03T17:35:07.028Z,99356.73
2019-05-03T17:37:36.473Z,99361.77
2019-05-03T17:40:17.763Z,99366.52
2019-05-03T17:43:05.487Z,99361.80
2019-05-03T17:45:37.974Z,99368.37
2019-05-03T17:48:07.996Z,99368.53
2019-05-03T17:50:37.734Z,99365.02
2019-05-03T17:53:25.405Z,99365.00
2019-05-03T17:55:56.600Z,99361.09
2019-05-03T17:58:46.204Z,99365.77
2019-05-03T18:01:20.478Z,99362.38
2019-05-03T18:04:05.714Z,99362.50
2019-05-03T18:06:34.763Z,99370.68
2019-05-03T18:09:24.393Z,99369.95
2019-05-03T18:11:55.580Z,99364.05
2019-05-03T18:14:25.363Z,99366.15
2019-05-03T18:16:54.943Z,99369.14
2019-05-03T18:19:24.397Z,99371.49
2019-05-03T18:21:55.458Z,99367.06
2019-05-03T18:24:25.195Z,99375.23
2019-05-03T18:26:54.789Z,99371.99
2019-05-03T18:29:25.231Z,99377.44
2019-05-03T18:31:55.173Z,99381.23
2019-05-03T18:34:25.030Z,99382.45
2019-05-03T18:36:54.561Z,99379.73
2019-05-03T18:39:25.251Z,99383.02
2019-05-03T18:41:54.874Z,99386.42
2019-05-03T18:44:28.751Z,99395.27
2019-05-03T18:47:05.589Z,99394.66
2019-05-03T18:49:35.414Z,99395.37
2019-05-03T18:52:05.371Z,99396.94
2019-05-03T18:54:35.081Z,99394.48
2019-05-03T18:57:05.139Z,99398.20
2019-05-03T18:59:36.953Z,99402.95
2019-05-03T19:02:06.432Z,99402.95
2019-05-03T19:04:40.071Z,99406.48
2019-05-03T19:07:11.506Z,99406.07
2019-05-03T19:09:42.678Z,99411.69
2019-05-03T19:12:15.393Z,99413.39
2019-05-03T19:14:45.395Z,99409.27
2019-05-03T19:17:19.183Z,99410.86
2019-05-03T19:19:50.262Z,99411.36
2019-05-03T19:22:20.038Z,99413.34
2019-05-03T19:24:49.484Z,99420.80
2019-05-03T19:27:19.237Z,99414.22
2019-05-03T19:29:48.765Z,99415.84
2019-05-03T19:32:18.209Z,99422.03
2019-05-03T19:34:51.274Z,99413.03
2019-05-03T19:37:19.050Z,99415.07
2019-05-03T19:39:48.505Z,99417.25
2019-05-03T19:42:17.964Z,99411.77
2019-05-03T19:44:47.644Z,99411.34
2019-05-03T19:47:17.158Z,99412.67
2019-05-03T19:49:46.621Z,99417.39
2019-05-03T19:52:18.287Z,99412.28
2019-05-03T19:54:47.734Z,99408.20
2019-05-03T19:57:18.854Z,99403.55
2019-05-03T19:59:56.412Z,99396.29
2019-05-03T20:02:35.174Z,99401.35
2019-05-03T20:05:25.235Z,99400.36
2019-05-03T20:08:12.519Z,99397.48
2019-05-03T20:10:42.534Z,99397.63
2019-05-03T20:13:11.971Z,99396.84
2019-05-03T20:15:41.487Z,99389.31
2019-05-03T20:18:11.044Z,99394.61
2019-05-03T20:20:40.483Z,99399.83
2019-05-03T20:23:10.026Z,99392.38
2019-05-03T20:25:39.569Z,99390.30
2019-05-03T20:28:09.030Z,99388.27
2019-05-03T20:30:38.844Z,99389.39
2019-05-03T20:33:08.380Z,99395.23
2019-05-03T20:35:37.840Z,99396.98
2019-05-03T20:38:07.610Z,99401.03
2019-05-03T20:40:37.089Z,99400.39
2019-05-03T20:43:23.457Z,99406.94
2019-05-03T20:45:57.111Z,99398.92
2019-05-03T20:48:26.697Z,99393.71
2019-05-03T20:50:56.344Z,99390.34
2019-05-03T20:53:25.863Z,99394.03
2019-05-03T20:55:55.534Z,99396.88
2019-05-03T20:58:25.298Z,99395.75
2019-05-03T21:00:54.703Z,99394.62
2019-05-03T21:03:24.832Z,99403.84
2019-05-03T21:05:55.287Z,99397.16
2019-05-03T21:08:25.511Z,99396.02
2019-05-03T21:10:55.267Z,99391.37
2019-05-03T21:13:29.068Z,99388.84
2019-05-03T21:16:10.043Z,99384.13
2019-05-03T21:18:41.160Z,99392.16
2019-05-03T21:21:12.254Z,99386.95
2019-05-03T21:24:01.685Z,99382.16
2019-05-03T21:26:31.325Z,99388.00
2019-05-03T21:29:00.787Z,99386.58
2019-05-03T21:31:30.238Z,99389.55
2019-05-03T21:34:00.095Z,99396.92
2019-05-03T21:36:29.567Z,99389.89
2019-05-03T21:38:59.146Z,99391.23
2019-05-03T21:41:28.693Z,99390.59
2019-05-03T21:43:58.533Z,99387.92
2019-05-03T21:46:32.291Z,99377.73
2019-05-03T21:49:04.483Z,99382.22
2019-05-03T21:51:34.614Z,99382.13
2019-05-03T21:54:06.644Z,99382.27
2019-05-03T21:56:35.787Z,99385.88
2019-05-03T21:59:05.746Z,99388.56
2019-05-03T22:01:37.606Z,99390.02
2019-05-03T22:04:07.316Z,99385.95
2019-05-03T22:06:36.781Z,99386.36
2019-05-03T22:09:06.421Z,99377.83
2019-05-03T22:11:35.896Z,99375.35
2019-05-03T22:14:07.005Z,99378.26
2019-05-03T22:16:38.125Z,99373.05
2019-05-03T22:19:07.587Z,99373.28
2019-05-03T22:21:41.690Z,99371.31
2019-05-03T22:24:18.509Z,99371.09
2019-05-03T22:26:55.315Z,99374.20
2019-05-03T22:29:25.443Z,99368.87
2019-05-03T22:31:55.121Z,99363.84
2019-05-03T22:34:25.762Z,99368.59
2019-05-03T22:36:55.943Z,99372.45
2019-05-03T22:39:25.427Z,99366.84
2019-05-03T22:41:55.147Z,99363.17
2019-05-03T22:44:25.449Z,99366.91
2019-05-03T22:46:55.293Z,99353.86
2019-05-03T22:49:25.930Z,99349.45
2019-05-03T22:51:55.697Z,99346.42
2019-05-03T22:54:25.145Z,99341.55
2019-05-03T22:56:55.440Z,99333.53
2019-05-03T22:59:25.421Z,99338.20
2019-05-03T23:01:55.075Z,99340.94
2019-05-03T23:04:25.553Z,99331.73
2019-05-03T23:06:59.359Z,99331.23
2019-05-03T23:09:28.964Z,99331.84
2019-05-03T23:11:58.777Z,99332.42
2019-05-03T23:14:28.215Z,99327.44
2019-05-03T23:16:57.670Z,99331.21
2019-05-03T23:19:27.504Z,99319.19
2019-05-03T23:21:58.613Z,99317.44
2019-05-03T23:24:28.322Z,99313.92
2019-05-03T23:26:57.791Z,99318.42
2019-05-03T23:29:27.325Z,99309.83
2019-05-03T23:31:56.861Z,99310.19
2019-05-03T23:34:26.374Z,99305.22
2019-05-03T23:37:00.092Z,99308.66
2019-05-03T23:39:29.563Z,99295.64
2019-05-03T23:41:59.019Z,99297.20
2019-05-03T23:44:28.499Z,99288.82
2019-05-03T23:47:16.077Z,99290.97
2019-05-03T23:49:45.779Z,99292.52
2019-05-03T23:52:19.858Z,99290.48
2019-05-03T23:54:49.640Z,99288.64
2019-05-03T23:57:19.136Z,99286.59
2019-05-03T23:59:48.770Z,99283.45
